Terminal Aerodrome Forecast
Issued by NWS

Home | Current Version | Previous Version | Text Only | Print | Product List | Glossary On
Versions: 1 2 3 4 5 6 7 8 9 10 11 12 13 14 15 16 17 18 19
721
FTUS44 KBMX 222320
TAFMGM
TAF
KMGM 222320Z 2300/2324 06003KT P6SM SCT050
     FM230400 06003KT P6SM BKN015
     FM230700 06004KT P6SM OVC007
     FM231500 08005KT P6SM BKN015
     FM231800 09005KT P6SM SCT035=

USA.gov is the U.S. government's official web portal to all federal, state and local government web resources and services.